Terminal Aerodrome Forecast
Issued by NWS

Home | Current Version | Previous Version | Text Only | Print | Product List | Glossary On
Versions: 1 2 3 4 5 6 7 8 9 10 11 12 13 14 15
000
FTUS45 KRIW 181100
TAFCPR
TAF
KCPR 181136Z 1812/1912 VRB05KT 5SM BR VCFG SCT007 OVC015
     FM181600 34008KT P6SM SCT012 BKN025
     FM181900 36013G21KT 5SM -RA BR SCT007 OVC015
     FM190300 02011KT 3SM -SN OVC012
     FM190700 03006KT P6SM SCT020 BKN035=

USA.gov is the U.S. government's official web portal to all federal, state and local government web resources and services.